Time;durP1;ratioP1;P1;durP2;ratioP2;P2;SDS_P1;SDS_P2;PMS_P1;PMS_P2;Temp;Humidity;BMP_temperature;BMP_pressure;BME280_temperature;BME280_humidity;BME280_pressure;Samples;Min_cycle;Max_cycle;Signal;HPM_P1;HPM_P2
2021/06/10 00:00:12;;;;;;;1.90;1.70;;;23.30;50.80;;;;;;5011450;28;20413;-60
2021/06/10 00:02:38;;;;;;;2.25;1.80;;;23.30;50.90;;;;;;5011424;28;20403;-60
2021/06/10 00:05:06;;;;;;;2.13;1.80;;;23.30;50.70;;;;;;5011503;28;20472;-60
2021/06/10 00:07:32;;;;;;;1.87;1.70;;;23.30;50.80;;;;;;5010950;28;20822;-60
2021/06/10 00:09:57;;;;;;;2.00;1.80;;;23.30;50.80;;;;;;5011376;28;20475;-60
2021/06/10 00:12:23;;;;;;;1.87;1.67;;;23.30;50.90;;;;;;5011318;28;20865;-60
2021/06/10 00:14:49;;;;;;;1.95;1.63;;;23.20;50.80;;;;;;5011275;28;20738;-60
2021/06/10 00:17:15;;;;;;;1.70;1.50;;;23.30;50.90;;;;;;5011130;28;20435;-60
2021/06/10 00:19:40;;;;;;;1.98;1.65;;;23.20;50.90;;;;;;5010940;28;20396;-60
2021/06/10 00:22:06;;;;;;;1.85;1.65;;;23.20;50.80;;;;;;5011311;28;20393;-60
2021/06/10 00:24:32;;;;;;;2.30;1.70;;;23.30;50.90;;;;;;5010030;28;20392;-60
2021/06/10 00:26:57;;;;;;;1.60;1.50;;;23.20;50.90;;;;;;5011152;28;20494;-60
2021/06/10 00:29:23;;;;;;;1.90;1.67;;;23.20;50.80;;;;;;5013705;28;20870;-60
2021/06/10 00:31:49;;;;;;;1.65;1.50;;;23.20;51.00;;;;;;5014453;28;20530;-60
2021/06/10 00:34:15;;;;;;;1.83;1.63;;;23.20;50.90;;;;;;5014911;28;20381;-60
2021/06/10 00:36:41;;;;;;;1.70;1.50;;;23.20;50.90;;;;;;5014629;28;20400;-60
2021/06/10 00:39:07;;;;;;;2.20;1.92;;;23.20;50.90;;;;;;5014774;28;20381;-60
2021/06/10 00:41:35;;;;;;;1.80;1.60;;;23.20;50.90;;;;;;5014167;28;20884;-60
2021/06/10 00:44:01;;;;;;;1.70;1.60;;;23.20;50.90;;;;;;5014335;28;20405;-61
2021/06/10 00:46:27;;;;;;;2.00;1.60;;;23.20;51.00;;;;;;5014583;28;20400;-60
2021/06/10 00:48:53;;;;;;;2.53;1.58;;;23.20;51.00;;;;;;5014071;28;20395;-60
2021/06/10 00:51:19;;;;;;;1.65;1.55;;;23.10;51.00;;;;;;5013693;28;20455;-60
2021/06/10 00:53:45;;;;;;;1.88;1.50;;;23.20;51.10;;;;;;5013661;28;20396;-60
2021/06/10 00:56:11;;;;;;;2.28;1.90;;;23.20;51.00;;;;;;5013576;28;20420;-60
2021/06/10 00:58:37;;;;;;;1.60;1.50;;;23.20;51.10;;;;;;5012687;28;20496;-60
2021/06/10 01:01:04;;;;;;;1.70;1.60;;;23.20;50.90;;;;;;5014068;28;20500;-60
2021/06/10 01:03:30;;;;;;;1.80;1.70;;;23.10;50.90;;;;;;5013814;28;20415;-60
2021/06/10 01:06:04;;;;;;;1.80;1.60;;;23.10;51.00;;;;;;5014073;28;20722;-60
2021/06/10 01:08:39;;;;;;;2.03;1.63;;;23.10;51.00;;;;;;5014004;28;20963;-60
2021/06/10 01:11:28;;;;;;;1.97;1.63;;;23.10;51.00;;;;;;5014104;28;21035;-60
2021/06/10 01:14:02;;;;;;;1.83;1.63;;;23.10;51.10;;;;;;5013991;28;20400;-60
2021/06/10 01:16:30;;;;;;;1.60;1.50;;;23.10;51.00;;;;;;5013650;28;20388;-60
2021/06/10 01:19:01;;;;;;;1.93;1.73;;;23.10;51.10;;;;;;5013565;28;20452;-60
2021/06/10 01:21:27;;;;;;;1.70;1.60;;;23.10;51.00;;;;;;5013633;28;20421;-60
2021/06/10 01:24:07;;;;;;;1.83;1.70;;;23.10;51.00;;;;;;5013572;28;20462;-60
2021/06/10 01:27:01;;;;;;;1.80;1.67;;;23.10;51.10;;;;;;5013969;28;20416;-60
2021/06/10 01:29:27;;;;;;;1.70;1.60;;;23.10;51.10;;;;;;5012278;28;20424;-60
2021/06/10 01:31:53;;;;;;;1.85;1.67;;;23.10;51.10;;;;;;5013478;28;20427;-61
2021/06/10 01:34:20;;;;;;;1.98;1.77;;;23.10;51.10;;;;;;5013788;28;20396;-60
2021/06/10 01:36:47;;;;;;;1.95;1.60;;;23.10;51.20;;;;;;5013589;28;20401;-60
2021/06/10 01:39:19;;;;;;;1.88;1.67;;;23.10;51.20;;;;;;5013425;28;20396;-60
2021/06/10 01:41:44;;;;;;;1.70;1.60;;;23.10;51.20;;;;;;5012839;28;20412;-60
2021/06/10 01:44:11;;;;;;;1.70;1.57;;;23.10;51.30;;;;;;5013334;28;20416;-60
2021/06/10 01:46:37;;;;;;;1.70;1.55;;;23.10;51.00;;;;;;5013436;28;20404;-60
2021/06/10 01:49:06;;;;;;;1.73;1.50;;;23.00;51.20;;;;;;5013415;28;20393;-60
2021/06/10 01:51:33;;;;;;;1.60;1.50;;;23.10;51.20;;;;;;5012963;28;20427;-59
2021/06/10 01:54:02;;;;;;;1.75;1.65;;;23.00;51.20;;;;;;5013263;28;20397;-60
2021/06/10 01:56:29;;;;;;;1.60;1.42;;;23.00;51.30;;;;;;5013072;28;20472;-60
2021/06/10 01:58:55;;;;;;;2.30;1.80;;;23.00;51.30;;;;;;5013200;28;20399;-60
2021/06/10 02:01:26;;;;;;;1.77;1.58;;;23.00;51.30;;;;;;5011516;28;20416;-60
2021/06/10 02:03:53;;;;;;;2.15;1.60;;;23.00;51.20;;;;;;5011629;28;20881;-59
2021/06/10 02:06:20;;;;;;;1.85;1.70;;;23.00;51.10;;;;;;5011806;28;20404;-60
2021/06/10 02:08:47;;;;;;;2.40;1.80;;;23.00;51.30;;;;;;5013045;28;20468;-60
2021/06/10 02:11:15;;;;;;;1.80;1.55;;;23.00;51.30;;;;;;5012406;28;20491;-60
2021/06/10 02:13:44;;;;;;;1.77;1.55;;;23.00;51.40;;;;;;5012043;28;20400;-60
2021/06/10 02:16:12;;;;;;;2.03;1.55;;;23.00;51.40;;;;;;5012771;28;20397;-60
2021/06/10 02:18:40;;;;;;;1.83;1.58;;;23.00;51.30;;;;;;5012871;28;20395;-60
2021/06/10 02:21:10;;;;;;;1.90;1.70;;;23.00;51.20;;;;;;5012701;28;20475;-60
2021/06/10 02:23:38;;;;;;;1.77;1.60;;;23.00;51.30;;;;;;5010804;28;20773;-61
2021/06/10 02:26:05;;;;;;;1.75;1.60;;;23.00;51.30;;;;;;5012776;28;20527;-60
2021/06/10 02:28:31;;;;;;;1.88;1.65;;;23.00;51.30;;;;;;5012515;28;20396;-60
2021/06/10 02:30:58;;;;;;;1.88;1.65;;;23.00;51.30;;;;;;5012545;28;20397;-60
2021/06/10 02:33:24;;;;;;;1.85;1.52;;;22.90;51.20;;;;;;5012396;28;20759;-60
2021/06/10 02:35:50;;;;;;;2.25;1.65;;;22.90;51.30;;;;;;5012144;28;20873;-60
2021/06/10 02:38:18;;;;;;;1.95;1.80;;;22.90;51.40;;;;;;5012425;28;20408;-60
2021/06/10 02:40:48;;;;;;;1.90;1.70;;;22.90;51.40;;;;;;5012318;28;20421;-61
2021/06/10 02:43:14;;;;;;;1.90;1.60;;;22.90;51.30;;;;;;5012194;28;20390;-61
2021/06/10 02:45:43;;;;;;;1.60;1.50;;;22.90;51.30;;;;;;5011744;28;20416;-61
2021/06/10 02:48:09;;;;;;;1.70;1.42;;;22.90;51.30;;;;;;5012400;28;20754;-60
2021/06/10 02:50:39;;;;;;;1.85;1.60;;;22.90;51.40;;;;;;5012179;28;20393;-60
2021/06/10 02:53:05;;;;;;;1.90;1.70;;;22.90;51.30;;;;;;5011028;28;20397;-60
2021/06/10 02:55:35;;;;;;;1.63;1.52;;;22.90;51.40;;;;;;5012023;28;20399;-60
2021/06/10 02:58:02;;;;;;;1.77;1.60;;;22.90;51.40;;;;;;5011993;28;20395;-60
2021/06/10 03:00:32;;;;;;;1.73;1.52;;;22.90;51.30;;;;;;5012063;28;20417;-60
2021/06/10 03:03:00;;;;;;;1.70;1.60;;;22.90;51.60;;;;;;5012030;28;20391;-60
2021/06/10 03:05:27;;;;;;;2.00;1.65;;;22.90;51.50;;;;;;5011788;28;20385;-60
2021/06/10 03:07:54;;;;;;;2.22;1.85;;;22.90;51.50;;;;;;5011694;28;20484;-61
2021/06/10 03:10:26;;;;;;;2.00;1.70;;;22.90;51.40;;;;;;5012015;28;20435;-60
2021/06/10 03:12:53;;;;;;;1.60;1.50;;;22.80;51.40;;;;;;5011995;28;20468;-60
2021/06/10 03:15:20;;;;;;;1.70;1.50;;;22.90;51.40;;;;;;5011933;28;20430;-60
2021/06/10 03:17:47;;;;;;;1.85;1.70;;;22.90;51.40;;;;;;5011559;28;20491;-60
2021/06/10 03:20:13;;;;;;;1.65;1.50;;;22.90;51.50;;;;;;5011898;28;20401;-60
2021/06/10 03:22:39;;;;;;;1.70;1.50;;;22.90;51.50;;;;;;5011856;28;20396;-61
2021/06/10 03:25:08;;;;;;;2.03;1.60;;;22.90;51.30;;;;;;5011871;28;20407;-60
2021/06/10 03:27:35;;;;;;;1.58;1.48;;;22.90;51.40;;;;;;5011566;28;20479;-61
2021/06/10 03:30:01;;;;;;;2.00;1.50;;;22.80;51.20;;;;;;5011726;28;20754;-60
2021/06/10 03:32:28;;;;;;;2.13;1.63;;;22.80;51.00;;;;;;5011743;28;20388;-60
2021/06/10 03:34:55;;;;;;;1.80;1.60;;;22.80;51.00;;;;;;5011663;28;20447;-60
2021/06/10 03:37:23;;;;;;;1.70;1.60;;;22.80;51.10;;;;;;5011791;28;20451;-60
2021/06/10 03:39:50;;;;;;;1.83;1.42;;;22.80;51.40;;;;;;5011316;28;20420;-60
2021/06/10 03:42:17;;;;;;;1.80;1.60;;;22.80;51.40;;;;;;5011197;28;20931;-61
2021/06/10 03:44:43;;;;;;;1.65;1.42;;;22.80;51.60;;;;;;5010956;28;20412;-60
2021/06/10 03:47:12;;;;;;;1.50;1.38;;;22.80;51.50;;;;;;5011508;28;20405;-60
2021/06/10 03:49:38;;;;;;;1.67;1.58;;;22.80;51.50;;;;;;5010303;28;20439;-60
2021/06/10 03:52:04;;;;;;;1.70;1.52;;;22.80;51.50;;;;;;5010036;28;20458;-60
2021/06/10 03:54:30;;;;;;;2.30;1.40;;;22.80;51.40;;;;;;5011395;28;20490;-60
2021/06/10 03:56:56;;;;;;;1.63;1.50;;;22.80;51.40;;;;;;5011104;28;20908;-61
2021/06/10 03:59:22;;;;;;;1.92;1.73;;;22.80;50.80;;;;;;5011353;28;20392;-60
2021/06/10 04:01:48;;;;;;;1.70;1.60;;;22.80;50.70;;;;;;5010138;28;20420;-60
2021/06/10 04:04:14;;;;;;;2.03;1.77;;;22.80;51.00;;;;;;5013385;28;20822;-60
2021/06/10 04:06:40;;;;;;;2.13;1.70;;;22.80;51.10;;;;;;5015404;28;20459;-60
2021/06/10 04:09:09;;;;;;;3.70;1.85;;;22.80;50.70;;;;;;5015407;28;20381;-61
2021/06/10 04:11:36;;;;;;;3.90;1.58;;;22.80;51.30;;;;;;5014936;28;20395;-61
2021/06/10 04:14:01;;;;;;;2.30;1.80;;;22.80;51.50;;;;;;5015009;28;21128;-60
2021/06/10 04:16:27;;;;;;;5.85;2.20;;;22.70;51.40;;;;;;5015153;28;20392;-60
2021/06/10 04:18:54;;;;;;;3.60;2.20;;;22.80;51.50;;;;;;5014929;28;20507;-60
2021/06/10 04:21:20;;;;;;;4.40;2.20;;;22.80;52.10;;;;;;5015184;28;20572;-60
2021/06/10 04:23:46;;;;;;;4.90;2.50;;;22.80;52.50;;;;;;5014454;28;20456;-61
2021/06/10 04:26:13;;;;;;;5.20;2.47;;;22.80;53.20;;;;;;5013817;28;20557;-60
2021/06/10 04:28:39;;;;;;;4.38;2.13;;;22.80;53.30;;;;;;5014097;28;20385;-60
2021/06/10 04:31:05;;;;;;;3.53;1.97;;;22.80;53.50;;;;;;5016345;28;20416;-59
2021/06/10 04:33:30;;;;;;;2.92;2.10;;;22.80;53.60;;;;;;5014268;28;20392;-60
2021/06/10 04:35:56;;;;;;;3.77;2.10;;;22.80;53.70;;;;;;5014540;28;20409;-60
2021/06/10 04:38:21;;;;;;;4.40;2.05;;;22.80;54.00;;;;;;5014552;28;20793;-59
2021/06/10 04:40:47;;;;;;;3.10;2.23;;;22.80;54.00;;;;;;5012681;28;20425;-60
2021/06/10 04:43:13;;;;;;;3.28;2.10;;;22.80;54.30;;;;;;5014695;28;20399;-60
2021/06/10 04:45:39;;;;;;;2.40;1.90;;;22.80;53.50;;;;;;5013779;28;20471;-60
2021/06/10 04:48:06;;;;;;;4.32;1.80;;;22.80;53.50;;;;;;5014032;28;20385;-60
2021/06/10 04:50:33;;;;;;;3.60;2.05;;;22.80;53.20;;;;;;5014357;28;20904;-60
2021/06/10 04:52:58;;;;;;;3.17;1.90;;;22.80;53.30;;;;;;5014223;28;20800;-60
2021/06/10 04:55:24;;;;;;;2.80;1.80;;;22.80;53.50;;;;;;5014512;28;20405;-60
2021/06/10 04:57:50;;;;;;;7.13;2.20;;;22.80;53.10;;;;;;5013449;28;21019;-60
2021/06/10 05:00:16;;;;;;;4.53;1.97;;;22.80;53.60;;;;;;5028442;28;20427;-60
2021/06/10 05:02:42;;;;;;;5.32;2.17;;;22.80;53.70;;;;;;5017080;28;20892;-65
2021/06/10 05:05:08;;;;;;;3.90;2.00;;;22.90;53.50;;;;;;5027786;28;20883;-65
2021/06/10 05:07:34;;;;;;;3.85;1.83;;;22.90;53.90;;;;;;5032994;28;20961;-64
2021/06/10 05:10:00;;;;;;;4.25;1.98;;;22.90;53.70;;;;;;5032557;28;20438;-65
2021/06/10 05:12:26;;;;;;;4.10;2.20;;;22.90;54.00;;;;;;5033125;28;20767;-64
2021/06/10 05:14:51;;;;;;;4.53;2.13;;;22.90;54.10;;;;;;5032436;28;20391;-64
2021/06/10 05:17:17;;;;;;;4.40;2.33;;;22.90;54.40;;;;;;5033724;28;20541;-61
2021/06/10 05:19:43;;;;;;;5.43;2.50;;;22.90;54.70;;;;;;5033199;28;20403;-63
2021/06/10 05:22:09;;;;;;;4.05;2.17;;;22.90;54.80;;;;;;5033215;28;20407;-65
2021/06/10 05:24:35;;;;;;;2.63;2.07;;;22.80;55.00;;;;;;5033311;28;20383;-65
2021/06/10 05:27:00;;;;;;;5.35;2.40;;;22.80;54.70;;;;;;5033560;28;20395;-64
2021/06/10 05:29:26;;;;;;;6.57;2.40;;;22.80;55.20;;;;;;5033575;28;20871;-65
2021/06/10 05:31:52;;;;;;;6.00;3.10;;;22.80;55.50;;;;;;5032966;28;20387;-64
2021/06/10 05:34:17;;;;;;;6.07;2.60;;;22.80;55.40;;;;;;5033477;28;20403;-65
2021/06/10 05:36:44;;;;;;;3.65;2.60;;;22.80;55.60;;;;;;5033232;28;20395;-66
2021/06/10 05:39:09;;;;;;;3.80;2.40;;;22.80;56.00;;;;;;5033161;28;20399;-66
2021/06/10 05:41:35;;;;;;;5.53;3.07;;;22.80;55.90;;;;;;5032795;28;20425;-65
2021/06/10 05:44:02;;;;;;;4.63;3.25;;;22.80;56.00;;;;;;5032941;28;20411;-65
2021/06/10 05:46:27;;;;;;;6.22;3.00;;;22.80;55.90;;;;;;5033240;28;20387;-60
2021/06/10 05:48:53;;;;;;;5.97;2.72;;;22.80;56.00;;;;;;5033071;28;20426;-59
2021/06/10 05:51:19;;;;;;;5.67;2.70;;;22.80;55.70;;;;;;5048474;28;20486;-59
2021/06/10 05:53:44;;;;;;;5.72;2.53;;;22.80;55.80;;;;;;5032551;28;20383;-59
2021/06/10 05:56:10;;;;;;;4.17;2.20;;;22.80;55.30;;;;;;5032932;28;20391;-59
2021/06/10 05:58:36;;;;;;;4.65;2.20;;;22.80;55.30;;;;;;5032998;28;20395;-59
2021/06/10 06:01:02;;;;;;;4.23;2.30;;;22.80;55.80;;;;;;5032492;28;20423;-59
2021/06/10 06:03:30;;;;;;;4.90;2.30;;;22.80;55.70;;;;;;5032914;28;20398;-65
2021/06/10 06:05:56;;;;;;;4.10;2.30;;;22.80;55.50;;;;;;5032638;28;20409;-61
2021/06/10 06:08:22;;;;;;;3.60;2.20;;;22.80;55.50;;;;;;5032885;28;20398;-62
2021/06/10 06:10:51;;;;;;;3.17;1.90;;;22.80;55.50;;;;;;5032769;28;20752;-61
2021/06/10 06:13:20;;;;;;;3.40;2.03;;;22.80;55.30;;;;;;5032660;28;20391;-60
2021/06/10 06:15:46;;;;;;;2.35;1.90;;;22.80;55.50;;;;;;5032210;28;20903;-61
2021/06/10 06:18:12;;;;;;;4.57;2.20;;;22.70;55.30;;;;;;5032121;28;20379;-61
2021/06/10 06:20:38;;;;;;;2.90;1.92;;;22.70;55.20;;;;;;5032084;28;20930;-60
2021/06/10 06:23:03;;;;;;;3.75;2.08;;;22.80;55.10;;;;;;5032655;28;20809;-60
2021/06/10 06:25:29;;;;;;;3.17;1.98;;;22.70;54.60;;;;;;5032337;28;20407;-60
2021/06/10 06:27:55;;;;;;;2.40;1.83;;;22.80;54.80;;;;;;5031883;28;20429;-62
2021/06/10 06:30:20;;;;;;;2.63;1.90;;;22.70;54.40;;;;;;5047791;28;20407;-59
2021/06/10 06:32:46;;;;;;;2.47;1.90;;;22.70;54.40;;;;;;5032413;28;20811;-64
2021/06/10 06:35:12;;;;;;;2.38;1.98;;;22.70;54.20;;;;;;5032462;28;20894;-60
2021/06/10 06:37:38;;;;;;;2.60;1.80;;;22.70;54.00;;;;;;5032042;28;20394;-61
2021/06/10 06:40:05;;;;;;;2.03;1.63;;;22.70;54.00;;;;;;5031980;28;20403;-60
2021/06/10 06:42:32;;;;;;;3.08;1.92;;;22.80;54.10;;;;;;5032280;28;20868;-60
2021/06/10 06:44:58;;;;;;;2.38;1.88;;;22.70;53.80;;;;;;5032000;28;20937;-64
2021/06/10 06:47:23;;;;;;;2.63;2.00;;;22.80;53.90;;;;;;5032229;28;20482;-60
2021/06/10 06:49:49;;;;;;;2.90;1.80;;;22.70;53.80;;;;;;5031637;28;20387;-60
2021/06/10 06:52:15;;;;;;;2.00;1.75;;;22.80;53.50;;;;;;5032224;28;20887;-59
2021/06/10 06:54:40;;;;;;;2.10;1.75;;;22.80;53.90;;;;;;5032090;28;20391;-61
2021/06/10 06:57:06;;;;;;;2.43;1.80;;;22.80;53.60;;;;;;5030773;28;20457;-60
2021/06/10 06:59:32;;;;;;;2.28;1.80;;;22.80;53.60;;;;;;5032066;28;20383;-61
2021/06/10 07:01:58;;;;;;;2.63;1.80;;;22.80;53.30;;;;;;5031225;28;20419;-61
2021/06/10 07:04:26;;;;;;;2.10;1.60;;;22.80;53.60;;;;;;5031845;28;20386;-64
2021/06/10 07:06:53;;;;;;;2.40;1.65;;;22.80;53.50;;;;;;5031855;28;21160;-62
2021/06/10 07:09:19;;;;;;;2.40;1.88;;;22.80;53.50;;;;;;5031877;28;20533;-63
2021/06/10 07:11:45;;;;;;;2.47;1.60;;;22.80;53.50;;;;;;5031566;28;20482;-64
2021/06/10 07:14:10;;;;;;;2.00;1.52;;;22.80;53.30;;;;;;5031626;28;20434;-65
2021/06/10 07:16:36;;;;;;;2.10;1.88;;;22.80;53.20;;;;;;5031714;28;20489;-61
2021/06/10 07:19:02;;;;;;;4.10;1.73;;;22.80;53.20;;;;;;5031768;28;20397;-64
2021/06/10 07:21:44;;;;;;;2.47;1.73;;;22.80;53.10;;;;;;5031637;28;20422;-64
2021/06/10 07:24:09;;;;;;;3.40;1.70;;;22.90;52.80;;;;;;5031502;28;20391;-62
2021/06/10 07:26:35;;;;;;;3.08;1.60;;;22.90;52.90;;;;;;5031540;28;20387;-63
2021/06/10 07:29:01;;;;;;;1.83;1.63;;;22.90;52.80;;;;;;5031634;28;20390;-60
2021/06/10 07:31:26;;;;;;;2.30;1.50;;;22.90;52.80;;;;;;5031360;28;20383;-59
2021/06/10 07:33:53;;;;;;;1.85;1.65;;;22.90;52.70;;;;;;5030615;28;20388;-66
2021/06/10 07:36:18;;;;;;;1.90;1.60;;;23.00;53.00;;;;;;5030010;28;20395;-65
2021/06/10 07:38:44;;;;;;;3.20;1.70;;;23.00;53.00;;;;;;5030753;28;20433;-66
2021/06/10 07:41:10;;;;;;;2.25;1.60;;;23.00;52.90;;;;;;5031449;28;20419;-66
2021/06/10 07:43:35;;;;;;;2.30;1.40;;;23.00;52.80;;;;;;5031277;28;20407;-66
2021/06/10 07:46:02;;;;;;;2.55;1.50;;;23.00;52.70;;;;;;5031228;28;20391;-65
2021/06/10 07:48:29;;;;;;;2.58;1.60;;;23.10;52.60;;;;;;5031367;28;20775;-65
2021/06/10 07:50:55;;;;;;;2.40;1.63;;;23.10;52.50;;;;;;5031455;28;20391;-66
2021/06/10 07:53:21;;;;;;;2.23;1.50;;;23.10;52.40;;;;;;5031467;28;20398;-65
2021/06/10 07:55:54;;;;;;;2.17;1.40;;;23.10;52.30;;;;;;5031106;28;20391;-65
2021/06/10 07:58:19;;;;;;;1.90;1.55;;;23.20;52.30;;;;;;5031330;28;20871;-65
2021/06/10 08:00:45;;;;;;;1.70;1.50;;;23.20;52.30;;;;;;5031133;28;20422;-66
2021/06/10 08:03:10;;;;;;;1.90;1.60;;;23.20;52.20;;;;;;5031056;28;20383;-65
2021/06/10 08:05:36;;;;;;;2.50;1.60;;;23.30;52.10;;;;;;5031220;28;20756;-64
2021/06/10 08:08:02;;;;;;;1.77;1.40;;;23.30;52.00;;;;;;5045772;28;20760;-65
2021/06/10 08:10:28;;;;;;;2.40;1.60;;;23.30;52.00;;;;;;5031230;28;20399;-66
2021/06/10 08:12:54;;;;;;;1.70;1.50;;;23.30;51.90;;;;;;5031040;28;20402;-66
2021/06/10 08:15:20;;;;;;;1.77;1.40;;;23.40;51.90;;;;;;5031163;28;20395;-65
2021/06/10 08:17:46;;;;;;;1.95;1.50;;;23.40;51.70;;;;;;5030919;28;20391;-65
2021/06/10 08:20:15;;;;;;;1.60;1.40;;;23.40;51.60;;;;;;5030541;28;20502;-61
2021/06/10 08:22:41;;;;;;;2.10;1.47;;;23.40;51.60;;;;;;5029680;28;20807;-59
2021/06/10 08:25:07;;;;;;;2.28;1.50;;;23.50;51.50;;;;;;5046362;28;20380;-59
2021/06/10 08:27:34;;;;;;;2.45;1.58;;;23.50;51.50;;;;;;5030915;28;20441;-60
2021/06/10 08:30:00;;;;;;;2.70;1.48;;;23.50;51.50;;;;;;5030604;28;20545;-59
2021/06/10 08:32:26;;;;;;;4.32;1.60;;;23.60;51.40;;;;;;5030974;28;20883;-59
2021/06/10 08:34:53;;;;;;;3.40;1.50;;;23.60;51.40;;;;;;5031004;28;20387;-59
2021/06/10 08:37:18;;;;;;;1.90;1.50;;;23.60;51.40;;;;;;5030771;28;20383;-59
2021/06/10 08:39:44;;;;;;;3.17;1.60;;;23.70;51.30;;;;;;5030558;28;20478;-59
2021/06/10 08:42:10;;;;;;;1.90;1.50;;;23.70;51.30;;;;;;5030734;28;20426;-59
2021/06/10 08:44:36;;;;;;;2.20;1.60;;;23.70;51.20;;;;;;5030746;28;20853;-59
2021/06/10 08:47:07;;;;;;;2.33;1.70;;;23.70;51.20;;;;;;5030917;28;20384;-59
2021/06/10 08:49:33;;;;;;;2.53;1.67;;;23.80;51.20;;;;;;5030867;28;20731;-60
2021/06/10 08:51:59;;;;;;;2.03;1.40;;;23.80;51.00;;;;;;5033353;28;20423;-59
2021/06/10 08:54:25;;;;;;;2.13;1.67;;;23.80;50.90;;;;;;5034155;28;20382;-59
2021/06/10 08:56:50;;;;;;;2.10;1.50;;;23.90;51.00;;;;;;5034270;28;20879;-60
2021/06/10 08:59:16;;;;;;;3.25;1.70;;;23.90;51.10;;;;;;5034261;28;20444;-59
2021/06/10 09:01:43;;;;;;;2.57;1.60;;;23.90;51.10;;;;;;5033871;28;20426;-59
2021/06/10 09:04:11;;;;;;;7.78;1.70;;;23.90;50.80;;;;;;5033934;28;20473;-59
2021/06/10 09:06:50;;;;;;;3.83;1.88;;;23.90;50.70;;;;;;5034021;28;20409;-59
2021/06/10 09:09:21;;;;;;;5.30;2.10;;;24.00;50.70;;;;;;5033955;28;20482;-59
2021/06/10 09:11:48;;;;;;;3.38;2.10;;;23.90;50.90;;;;;;5033680;28;20387;-59
2021/06/10 09:14:14;;;;;;;3.70;2.00;;;23.80;51.00;;;;;;5033755;28;20403;-59
2021/06/10 09:16:40;;;;;;;4.43;2.20;;;23.70;51.20;;;;;;5033782;28;20392;-59
2021/06/10 09:19:16;;;;;;;3.97;2.10;;;23.70;52.20;;;;;;5033830;28;20391;-59
2021/06/10 09:21:58;;;;;;;3.67;2.00;;;23.60;52.30;;;;;;5033343;28;20899;-59
2021/06/10 09:24:35;;;;;;;3.50;2.33;;;23.60;52.80;;;;;;5033731;28;20470;-59
2021/06/10 09:27:05;;;;;;;5.03;2.70;;;23.60;53.20;;;;;;5032373;28;20407;-59
2021/06/10 09:29:52;;;;;;;4.35;2.55;;;23.60;53.10;;;;;;5033572;28;20379;-59
2021/06/10 09:32:26;;;;;;;4.13;2.70;;;23.60;53.30;;;;;;5032101;28;20396;-58
2021/06/10 09:35:00;;;;;;;4.37;2.50;;;23.60;53.20;;;;;;5033492;28;20387;-59
2021/06/10 09:37:37;;;;;;;3.45;2.20;;;23.60;53.60;;;;;;5033481;28;20430;-63
2021/06/10 09:40:18;;;;;;;7.15;3.30;;;23.50;53.10;;;;;;5032896;28;20407;-58
2021/06/10 09:42:45;;;;;;;7.65;3.15;;;23.50;52.90;;;;;;5033449;28;20897;-59
2021/06/10 09:45:14;;;;;;;7.75;3.00;;;23.60;52.80;;;;;;5033164;28;20411;-58
2021/06/10 09:47:45;;;;;;;5.85;2.70;;;23.50;52.90;;;;;;5033323;28;20415;-59
2021/06/10 09:50:44;;;;;;;7.47;2.83;;;23.50;52.80;;;;;;5033092;28;20430;-58
2021/06/10 09:53:16;;;;;;;4.32;2.80;;;23.50;52.90;;;;;;5021376;28;20391;-59
2021/06/10 09:55:43;;;;;;;6.90;3.10;;;23.50;52.50;;;;;;5033067;28;20449;-59
2021/06/10 09:58:12;;;;;;;5.43;3.00;;;23.50;52.80;;;;;;5032806;28;20482;-59
2021/06/10 10:00:38;;;;;;;5.07;3.00;;;23.40;53.00;;;;;;5030999;28;20887;-59
2021/06/10 10:03:04;;;;;;;5.38;2.88;;;23.50;52.50;;;;;;5032957;28;20453;-59
2021/06/10 10:05:30;;;;;;;4.43;3.00;;;23.40;52.60;;;;;;5032404;28;20383;-59
2021/06/10 10:07:56;;;;;;;5.78;3.10;;;23.50;52.70;;;;;;5032070;28;20465;-59
2021/06/10 10:10:23;;;;;;;6.80;2.92;;;23.50;52.50;;;;;;5032860;28;20383;-58
2021/06/10 10:12:51;;;;;;;7.38;3.10;;;23.50;53.00;;;;;;5033036;28;20449;-60
2021/06/10 10:15:18;;;;;;;5.57;3.40;;;23.50;53.60;;;;;;5032585;28;20470;-59
2021/06/10 10:17:46;;;;;;;6.38;3.38;;;23.50;53.70;;;;;;5023082;28;20455;-59
2021/06/10 10:20:15;;;;;;;7.45;3.17;;;23.50;53.50;;;;;;5012622;28;20411;-59
2021/06/10 10:22:41;;;;;;;8.32;3.58;;;23.60;53.30;;;;;;5012857;28;20399;-59
2021/06/10 10:25:08;;;;;;;6.65;3.20;;;23.60;53.40;;;;;;5012895;28;20849;-60
2021/06/10 10:27:34;;;;;;;8.55;2.95;;;23.60;53.10;;;;;;5012889;28;20969;-59
2021/06/10 10:30:00;;;;;;;6.50;2.95;;;23.60;53.20;;;;;;5012450;28;20397;-59
2021/06/10 10:32:29;;;;;;;6.05;3.20;;;23.60;53.00;;;;;;5012776;28;20908;-59
2021/06/10 10:35:22;;;;;;;4.87;3.00;;;23.60;53.20;;;;;;5012683;28;20559;-64
2021/06/10 10:37:52;;;;;;;3.65;2.88;;;23.60;53.30;;;;;;5012419;28;20436;-59
2021/06/10 10:40:29;;;;;;;4.63;3.00;;;23.60;52.80;;;;;;5012325;28;20413;-61
2021/06/10 10:43:08;;;;;;;7.55;3.08;;;23.50;52.30;;;;;;5012506;28;20397;-64
2021/06/10 10:45:34;;;;;;;4.35;3.20;;;23.50;52.40;;;;;;5012231;28;20405;-60
2021/06/10 10:48:01;;;;;;;4.47;3.00;;;23.50;52.40;;;;;;5012254;28;20409;-64
2021/06/10 10:50:40;;;;;;;5.00;3.03;;;23.50;52.30;;;;;;5012411;28;20397;-65
2021/06/10 10:53:25;;;;;;;3.65;3.00;;;23.50;52.40;;;;;;5012310;28;20393;-62
2021/06/10 10:56:06;;;;;;;3.50;2.97;;;23.50;52.40;;;;;;5010680;28;20403;-65
2021/06/10 10:58:32;;;;;;;4.47;2.95;;;23.50;52.30;;;;;;5012232;28;20397;-60
2021/06/10 11:00:59;;;;;;;3.97;2.87;;;23.40;52.20;;;;;;5012074;28;20932;-62
2021/06/10 11:03:37;;;;;;;3.90;2.92;;;23.40;52.20;;;;;;5012267;28;20389;-61
2021/06/10 11:06:21;;;;;;;4.03;2.85;;;23.40;52.00;;;;;;5011540;28;20381;-65
2021/06/10 11:09:15;;;;;;;4.03;2.85;;;23.40;51.90;;;;;;5010750;28;20901;-59
2021/06/10 11:12:00;;;;;;;3.72;2.60;;;23.40;52.10;;;;;;5012033;28;20412;-64
2021/06/10 11:14:44;;;;;;;3.10;2.70;;;23.40;51.90;;;;;;5011286;28;20758;-60
2021/06/10 11:17:36;;;;;;;3.72;2.78;;;23.40;51.90;;;;;;5012094;28;20381;-61
2021/06/10 11:20:07;;;;;;;3.17;2.60;;;23.40;51.80;;;;;;5009028;28;20411;-60
2021/06/10 11:22:45;;;;;;;3.33;2.70;;;23.40;51.80;;;;;;5011418;28;20395;-62
2021/06/10 11:25:15;;;;;;;3.47;2.60;;;23.30;51.90;;;;;;5010436;28;20400;-61
2021/06/10 11:27:48;;;;;;;3.88;2.60;;;23.30;51.70;;;;;;5011857;28;20408;-61
2021/06/10 11:30:17;;;;;;;4.00;2.70;;;23.30;51.80;;;;;;5011547;28;20813;-61
2021/06/10 11:33:11;;;;;;;3.40;2.70;;;23.30;51.70;;;;;;5012136;28;20389;-64
2021/06/10 11:36:02;;;;;;;3.03;2.60;;;23.30;51.80;;;;;;5011718;28;20436;-61
2021/06/10 11:38:33;;;;;;;3.93;3.20;;;23.30;51.70;;;;;;5011424;28;20588;-60
2021/06/10 11:41:06;;;;;;;3.83;3.00;;;23.30;51.70;;;;;;5011904;28;20521;-61
2021/06/10 11:43:35;;;;;;;3.80;2.87;;;23.40;51.80;;;;;;5011399;28;20895;-62
2021/06/10 11:46:06;;;;;;;3.20;2.90;;;23.40;51.70;;;;;;5011575;28;20455;-63
2021/06/10 11:48:50;;;;;;;3.85;2.65;;;23.40;51.70;;;;;;5011608;28;20889;-61
2021/06/10 11:51:25;;;;;;;3.95;2.70;;;23.30;51.70;;;;;;5011639;28;20401;-64
2021/06/10 11:53:53;;;;;;;3.63;2.47;;;23.30;51.60;;;;;;5011280;28;20452;-59
2021/06/10 11:56:26;;;;;;;3.30;2.78;;;23.30;51.70;;;;;;5010073;28;20388;-63
2021/06/10 11:58:53;;;;;;;3.42;3.03;;;23.30;51.60;;;;;;5011532;28;20443;-62
2021/06/10 12:01:20;;;;;;;3.92;3.10;;;23.30;51.80;;;;;;5011519;28;20421;-62
2021/06/10 12:03:46;;;;;;;3.10;2.60;;;23.30;51.70;;;;;;5011558;28;20380;-61
2021/06/10 12:06:14;;;;;;;3.00;2.70;;;23.30;51.80;;;;;;5009566;28;20891;-64
2021/06/10 12:08:45;;;;;;;3.20;2.90;;;23.30;51.80;;;;;;5011431;28;20427;-64
2021/06/10 12:11:14;;;;;;;3.40;2.80;;;23.30;51.80;;;;;;5011844;28;20385;-63
2021/06/10 12:13:43;;;;;;;3.08;2.80;;;23.30;51.70;;;;;;5010165;28;20393;-64
2021/06/10 12:16:11;;;;;;;3.28;2.67;;;23.30;51.70;;;;;;5011035;28;20397;-64
2021/06/10 12:18:39;;;;;;;3.70;3.00;;;23.30;51.60;;;;;;5011456;28;20413;-60
2021/06/10 12:21:09;;;;;;;3.05;2.60;;;23.30;51.60;;;;;;5011329;28;20419;-63
2021/06/10 12:23:36;;;;;;;3.08;2.78;;;23.40;51.70;;;;;;5011311;28;20389;-63
2021/06/10 12:26:14;;;;;;;3.20;2.70;;;23.40;51.60;;;;;;5013633;28;20885;-63
2021/06/10 12:28:42;;;;;;;3.10;2.80;;;23.30;51.60;;;;;;5015030;28;20451;-64
2021/06/10 12:31:18;;;;;;;3.53;2.80;;;23.40;51.70;;;;;;5015035;28;20400;-64
2021/06/10 12:33:45;;;;;;;3.17;2.50;;;23.40;51.60;;;;;;5014932;28;20809;-63
2021/06/10 12:36:18;;;;;;;3.17;2.88;;;23.30;51.50;;;;;;5014093;28;20399;-62
2021/06/10 12:38:52;;;;;;;3.17;2.67;;;23.40;51.60;;;;;;5014386;28;20397;-64
2021/06/10 12:41:26;;;;;;;3.00;2.70;;;23.40;51.40;;;;;;5014876;28;20430;-60
2021/06/10 12:44:03;;;;;;;2.85;2.60;;;23.40;51.30;;;;;;5014766;28;20409;-64
2021/06/10 12:46:31;;;;;;;2.78;2.50;;;23.40;51.40;;;;;;5014615;28;20388;-62
2021/06/10 12:48:59;;;;;;;3.20;2.58;;;23.40;51.30;;;;;;5013528;28;20909;-63
2021/06/10 12:51:31;;;;;;;2.80;2.50;;;23.40;51.40;;;;;;5014728;28;20428;-64
2021/06/10 12:53:59;;;;;;;2.75;2.55;;;23.40;51.30;;;;;;5014637;28;20397;-65